sensor_id;sensor_type;location;lat;lon;timestamp;temperature;humidity
17948;DHT22;9099;47.958;11.366;2024-01-11T00:00:15;-4.40;99.90
17948;DHT22;9099;47.958;11.366;2024-01-11T00:02:42;-4.50;99.90
17948;DHT22;9099;47.958;11.366;2024-01-11T00:05:09;-4.60;99.90
17948;DHT22;9099;47.958;11.366;2024-01-11T00:07:36;-4.70;99.90
17948;DHT22;9099;47.958;11.366;2024-01-11T00:10:03;-4.70;99.90
17948;DHT22;9099;47.958;11.366;2024-01-11T00:12:30;-4.70;99.90
17948;DHT22;9099;47.958;11.366;2024-01-11T00:14:58;-4.70;99.90
17948;DHT22;9099;47.958;11.366;2024-01-11T00:17:25;-4.70;99.90
17948;DHT22;9099;47.958;11.366;2024-01-11T00:19:52;-4.70;99.90
17948;DHT22;9099;47.958;11.366;2024-01-11T00:22:19;-4.60;99.90
17948;DHT22;9099;47.958;11.366;2024-01-11T00:24:46;-4.70;99.90
17948;DHT22;9099;47.958;11.366;2024-01-11T00:27:13;-4.70;99.90
17948;DHT22;9099;47.958;11.366;2024-01-11T00:29:39;-4.70;99.90
17948;DHT22;9099;47.958;11.366;2024-01-11T00:32:08;-4.80;99.90
17948;DHT22;9099;47.958;11.366;2024-01-11T00:34:34;-4.90;99.90
17948;DHT22;9099;47.958;11.366;2024-01-11T00:37:02;-4.90;99.90
17948;DHT22;9099;47.958;11.366;2024-01-11T00:39:29;-4.90;99.90
17948;DHT22;9099;47.958;11.366;2024-01-11T00:41:55;-4.90;99.90
17948;DHT22;9099;47.958;11.366;2024-01-11T00:44:22;-4.90;99.90
17948;DHT22;9099;47.958;11.366;2024-01-11T00:46:49;-4.90;99.90
17948;DHT22;9099;47.958;11.366;2024-01-11T00:49:17;-4.90;99.90
17948;DHT22;9099;47.958;11.366;2024-01-11T00:51:44;-5.00;99.90
17948;DHT22;9099;47.958;11.366;2024-01-11T00:54:11;-5.10;99.90
17948;DHT22;9099;47.958;11.366;2024-01-11T00:56:38;-5.10;99.90
17948;DHT22;9099;47.958;11.366;2024-01-11T00:59:05;-5.10;99.90
17948;DHT22;9099;47.958;11.366;2024-01-11T01:01:31;-5.10;99.90
17948;DHT22;9099;47.958;11.366;2024-01-11T01:03:58;-5.10;99.90
17948;DHT22;9099;47.958;11.366;2024-01-11T01:06:27;-5.00;99.90
17948;DHT22;9099;47.958;11.366;2024-01-11T01:08:55;-5.00;99.90
17948;DHT22;9099;47.958;11.366;2024-01-11T01:11:21;-5.20;99.90
17948;DHT22;9099;47.958;11.366;2024-01-11T01:13:48;-5.10;99.90
17948;DHT22;9099;47.958;11.366;2024-01-11T01:16:15;-5.10;99.90
17948;DHT22;9099;47.958;11.366;2024-01-11T01:18:43;-5.10;99.90
17948;DHT22;9099;47.958;11.366;2024-01-11T01:21:10;-5.20;99.90
17948;DHT22;9099;47.958;11.366;2024-01-11T01:23:38;-5.30;99.90
17948;DHT22;9099;47.958;11.366;2024-01-11T01:26:06;-5.40;99.90
17948;DHT22;9099;47.958;11.366;2024-01-11T01:28:32;-5.40;99.90
17948;DHT22;9099;47.958;11.366;2024-01-11T01:30:59;-5.30;99.90
17948;DHT22;9099;47.958;11.366;2024-01-11T01:33:26;-5.30;99.90
17948;DHT22;9099;47.958;11.366;2024-01-11T01:35:53;-5.10;99.90
17948;DHT22;9099;47.958;11.366;2024-01-11T01:38:20;-5.00;99.90
17948;DHT22;9099;47.958;11.366;2024-01-11T01:40:48;-5.00;99.90
17948;DHT22;9099;47.958;11.366;2024-01-11T01:43:15;-5.10;99.90
17948;DHT22;9099;47.958;11.366;2024-01-11T01:45:41;-5.20;99.90
17948;DHT22;9099;47.958;11.366;2024-01-11T01:48:08;-5.30;99.90
17948;DHT22;9099;47.958;11.366;2024-01-11T01:50:35;-5.30;99.90
17948;DHT22;9099;47.958;11.366;2024-01-11T01:53:02;-5.40;99.90
17948;DHT22;9099;47.958;11.366;2024-01-11T01:55:29;-5.40;99.90
17948;DHT22;9099;47.958;11.366;2024-01-11T01:57:59;-5.50;99.90
17948;DHT22;9099;47.958;11.366;2024-01-11T02:00:27;-5.50;99.90
17948;DHT22;9099;47.958;11.366;2024-01-11T02:02:55;-5.50;99.90
17948;DHT22;9099;47.958;11.366;2024-01-11T02:05:23;-5.50;99.90
17948;DHT22;9099;47.958;11.366;2024-01-11T02:07:50;-5.50;99.90
17948;DHT22;9099;47.958;11.366;2024-01-11T02:10:17;-5.40;99.90
17948;DHT22;9099;47.958;11.366;2024-01-11T02:12:45;-5.40;99.90
17948;DHT22;9099;47.958;11.366;2024-01-11T02:15:14;-5.50;99.90
17948;DHT22;9099;47.958;11.366;2024-01-11T02:17:42;-5.50;99.90
17948;DHT22;9099;47.958;11.366;2024-01-11T02:20:10;-5.50;99.90
17948;DHT22;9099;47.958;11.366;2024-01-11T02:22:40;-5.60;99.90
17948;DHT22;9099;47.958;11.366;2024-01-11T02:25:08;-5.70;99.90
17948;DHT22;9099;47.958;11.366;2024-01-11T02:27:45;-5.70;99.90
17948;DHT22;9099;47.958;11.366;2024-01-11T02:30:13;-5.50;99.90
17948;DHT22;9099;47.958;11.366;2024-01-11T02:32:40;-5.40;99.90
17948;DHT22;9099;47.958;11.366;2024-01-11T02:35:07;-5.50;99.90
17948;DHT22;9099;47.958;11.366;2024-01-11T02:37:36;-5.50;99.90
17948;DHT22;9099;47.958;11.366;2024-01-11T02:40:05;-5.40;99.90
17948;DHT22;9099;47.958;11.366;2024-01-11T02:42:34;-5.40;99.90
17948;DHT22;9099;47.958;11.366;2024-01-11T02:45:02;-5.40;99.90
17948;DHT22;9099;47.958;11.366;2024-01-11T02:47:29;-5.50;99.90
17948;DHT22;9099;47.958;11.366;2024-01-11T02:49:56;-5.60;99.90
17948;DHT22;9099;47.958;11.366;2024-01-11T02:52:23;-5.60;99.90
17948;DHT22;9099;47.958;11.366;2024-01-11T02:54:50;-5.60;99.90
17948;DHT22;9099;47.958;11.366;2024-01-11T02:57:17;-5.70;99.90
17948;DHT22;9099;47.958;11.366;2024-01-11T02:59:45;-5.80;99.90
17948;DHT22;9099;47.958;11.366;2024-01-11T03:02:12;-5.80;99.90
17948;DHT22;9099;47.958;11.366;2024-01-11T03:04:39;-5.80;99.90
17948;DHT22;9099;47.958;11.366;2024-01-11T03:07:05;-5.70;99.90
17948;DHT22;9099;47.958;11.366;2024-01-11T03:09:32;-5.60;99.90
17948;DHT22;9099;47.958;11.366;2024-01-11T03:12:00;-5.60;99.90
17948;DHT22;9099;47.958;11.366;2024-01-11T03:14:26;-5.60;99.90
17948;DHT22;9099;47.958;11.366;2024-01-11T03:16:55;-5.60;99.90
17948;DHT22;9099;47.958;11.366;2024-01-11T03:19:21;-5.70;99.90
17948;DHT22;9099;47.958;11.366;2024-01-11T03:21:48;-5.80;99.90
17948;DHT22;9099;47.958;11.366;2024-01-11T03:24:15;-5.90;99.90
17948;DHT22;9099;47.958;11.366;2024-01-11T03:26:42;-6.00;99.90
17948;DHT22;9099;47.958;11.366;2024-01-11T03:29:08;-5.90;99.90
17948;DHT22;9099;47.958;11.366;2024-01-11T03:31:35;-5.80;99.90
17948;DHT22;9099;47.958;11.366;2024-01-11T03:34:04;-5.80;99.90
17948;DHT22;9099;47.958;11.366;2024-01-11T03:36:31;-5.80;99.90
17948;DHT22;9099;47.958;11.366;2024-01-11T03:38:58;-5.90;99.90
17948;DHT22;9099;47.958;11.366;2024-01-11T03:41:25;-6.00;99.90
17948;DHT22;9099;47.958;11.366;2024-01-11T03:43:52;-6.10;99.90
17948;DHT22;9099;47.958;11.366;2024-01-11T03:46:18;-6.10;99.90
17948;DHT22;9099;47.958;11.366;2024-01-11T03:48:45;-6.00;99.90
17948;DHT22;9099;47.958;11.366;2024-01-11T03:51:14;-6.00;99.90
17948;DHT22;9099;47.958;11.366;2024-01-11T03:53:40;-6.10;99.90
17948;DHT22;9099;47.958;11.366;2024-01-11T03:56:07;-6.10;99.90
17948;DHT22;9099;47.958;11.366;2024-01-11T03:58:35;-6.10;99.90
17948;DHT22;9099;47.958;11.366;2024-01-11T04:01:04;-6.00;99.90
17948;DHT22;9099;47.958;11.366;2024-01-11T04:03:32;-6.00;99.90
17948;DHT22;9099;47.958;11.366;2024-01-11T04:05:59;-6.10;99.90
17948;DHT22;9099;47.958;11.366;2024-01-11T04:08:27;-6.10;99.90
17948;DHT22;9099;47.958;11.366;2024-01-11T04:10:54;-6.10;99.90
17948;DHT22;9099;47.958;11.366;2024-01-11T04:13:21;-6.00;99.90
17948;DHT22;9099;47.958;11.366;2024-01-11T04:15:48;-5.90;99.90
17948;DHT22;9099;47.958;11.366;2024-01-11T04:18:15;-5.90;99.90
17948;DHT22;9099;47.958;11.366;2024-01-11T04:20:42;-5.90;99.90
17948;DHT22;9099;47.958;11.366;2024-01-11T04:23:08;-6.00;99.90
17948;DHT22;9099;47.958;11.366;2024-01-11T04:25:36;-5.90;99.90
17948;DHT22;9099;47.958;11.366;2024-01-11T04:28:04;-5.80;99.90
17948;DHT22;9099;47.958;11.366;2024-01-11T04:30:30;-5.90;99.90
17948;DHT22;9099;47.958;11.366;2024-01-11T04:32:57;-5.90;99.90
17948;DHT22;9099;47.958;11.366;2024-01-11T04:35:24;-5.80;99.90
17948;DHT22;9099;47.958;11.366;2024-01-11T04:37:51;-5.70;99.90
17948;DHT22;9099;47.958;11.366;2024-01-11T04:40:18;-5.70;99.90
17948;DHT22;9099;47.958;11.366;2024-01-11T04:42:46;-5.70;99.90
17948;DHT22;9099;47.958;11.366;2024-01-11T04:45:12;-5.70;99.90
17948;DHT22;9099;47.958;11.366;2024-01-11T04:47:39;-5.80;99.90
17948;DHT22;9099;47.958;11.366;2024-01-11T04:50:08;-5.80;99.90
17948;DHT22;9099;47.958;11.366;2024-01-11T04:52:35;-5.70;99.90
17948;DHT22;9099;47.958;11.366;2024-01-11T04:55:02;-5.80;99.90
17948;DHT22;9099;47.958;11.366;2024-01-11T04:57:29;-5.80;99.90
17948;DHT22;9099;47.958;11.366;2024-01-11T04:59:57;-5.80;99.90
17948;DHT22;9099;47.958;11.366;2024-01-11T05:02:24;-5.70;99.90
17948;DHT22;9099;47.958;11.366;2024-01-11T05:04:50;-5.80;99.90
17948;DHT22;9099;47.958;11.366;2024-01-11T05:07:17;-5.80;99.90
17948;DHT22;9099;47.958;11.366;2024-01-11T05:09:44;-5.80;99.90
17948;DHT22;9099;47.958;11.366;2024-01-11T05:12:11;-5.90;99.90
17948;DHT22;9099;47.958;11.366;2024-01-11T05:14:38;-6.00;99.90
17948;DHT22;9099;47.958;11.366;2024-01-11T05:17:06;-6.00;99.90
17948;DHT22;9099;47.958;11.366;2024-01-11T05:19:33;-6.10;99.90
17948;DHT22;9099;47.958;11.366;2024-01-11T05:22:00;-6.10;99.90
17948;DHT22;9099;47.958;11.366;2024-01-11T05:24:26;-6.00;99.90
17948;DHT22;9099;47.958;11.366;2024-01-11T05:26:54;-6.00;99.90
17948;DHT22;9099;47.958;11.366;2024-01-11T05:29:21;-6.00;99.90
17948;DHT22;9099;47.958;11.366;2024-01-11T05:31:48;-6.10;99.90
17948;DHT22;9099;47.958;11.366;2024-01-11T05:34:16;-6.00;99.90
17948;DHT22;9099;47.958;11.366;2024-01-11T05:36:43;-5.90;99.90
17948;DHT22;9099;47.958;11.366;2024-01-11T05:39:11;-5.80;99.90
17948;DHT22;9099;47.958;11.366;2024-01-11T05:41:38;-6.00;99.90
17948;DHT22;9099;47.958;11.366;2024-01-11T05:44:05;-6.00;99.90
17948;DHT22;9099;47.958;11.366;2024-01-11T05:46:31;-6.10;99.90
17948;DHT22;9099;47.958;11.366;2024-01-11T05:48:58;-5.90;99.90
17948;DHT22;9099;47.958;11.366;2024-01-11T05:51:26;-5.80;99.90
17948;DHT22;9099;47.958;11.366;2024-01-11T05:53:53;-5.80;99.90
17948;DHT22;9099;47.958;11.366;2024-01-11T05:56:21;-5.80;99.90
17948;DHT22;9099;47.958;11.366;2024-01-11T05:58:47;-5.80;99.90
17948;DHT22;9099;47.958;11.366;2024-01-11T06:01:14;-5.80;99.90
17948;DHT22;9099;47.958;11.366;2024-01-11T06:03:41;-5.90;99.90
17948;DHT22;9099;47.958;11.366;2024-01-11T06:06:08;-5.90;99.90
17948;DHT22;9099;47.958;11.366;2024-01-11T06:08:36;-6.10;99.90
17948;DHT22;9099;47.958;11.366;2024-01-11T06:11:03;-6.10;99.90
17948;DHT22;9099;47.958;11.366;2024-01-11T06:13:31;-6.00;99.90
17948;DHT22;9099;47.958;11.366;2024-01-11T06:15:58;-5.90;99.90
17948;DHT22;9099;47.958;11.366;2024-01-11T06:18:25;-5.90;99.90
17948;DHT22;9099;47.958;11.366;2024-01-11T06:20:52;-5.90;99.90
17948;DHT22;9099;47.958;11.366;2024-01-11T06:23:18;-5.80;99.90
17948;DHT22;9099;47.958;11.366;2024-01-11T06:25:47;-5.80;99.90
17948;DHT22;9099;47.958;11.366;2024-01-11T06:28:14;-5.80;99.90
17948;DHT22;9099;47.958;11.366;2024-01-11T06:30:42;-5.70;99.90
17948;DHT22;9099;47.958;11.366;2024-01-11T06:33:09;-5.60;99.90
17948;DHT22;9099;47.958;11.366;2024-01-11T06:35:36;-5.60;99.90
17948;DHT22;9099;47.958;11.366;2024-01-11T06:38:03;-5.60;99.90
17948;DHT22;9099;47.958;11.366;2024-01-11T06:40:30;-5.70;99.90
17948;DHT22;9099;47.958;11.366;2024-01-11T06:42:58;-5.80;99.90
17948;DHT22;9099;47.958;11.366;2024-01-11T06:45:25;-5.90;99.90
17948;DHT22;9099;47.958;11.366;2024-01-11T06:47:52;-5.90;99.90
17948;DHT22;9099;47.958;11.366;2024-01-11T06:50:19;-5.90;99.90
17948;DHT22;9099;47.958;11.366;2024-01-11T06:52:46;-5.90;99.90
17948;DHT22;9099;47.958;11.366;2024-01-11T06:55:13;-6.00;99.90
17948;DHT22;9099;47.958;11.366;2024-01-11T06:57:39;-6.00;99.90
17948;DHT22;9099;47.958;11.366;2024-01-11T07:00:08;-6.00;99.90
17948;DHT22;9099;47.958;11.366;2024-01-11T07:02:35;-6.00;99.90
17948;DHT22;9099;47.958;11.366;2024-01-11T07:05:02;-6.00;99.90
17948;DHT22;9099;47.958;11.366;2024-01-11T07:07:29;-6.30;99.90
17948;DHT22;9099;47.958;11.366;2024-01-11T07:09:56;-6.50;99.90
17948;DHT22;9099;47.958;11.366;2024-01-11T07:12:23;-6.70;99.90
17948;DHT22;9099;47.958;11.366;2024-01-11T07:14:50;-6.70;99.90
17948;DHT22;9099;47.958;11.366;2024-01-11T07:17:18;-6.70;99.90
17948;DHT22;9099;47.958;11.366;2024-01-11T07:19:45;-6.60;99.90
17948;DHT22;9099;47.958;11.366;2024-01-11T07:22:11;-6.60;99.90
17948;DHT22;9099;47.958;11.366;2024-01-11T07:24:38;-6.60;99.90
17948;DHT22;9099;47.958;11.366;2024-01-11T07:27:05;-6.50;99.90
17948;DHT22;9099;47.958;11.366;2024-01-11T07:29:33;-6.50;99.90
17948;DHT22;9099;47.958;11.366;2024-01-11T07:32:00;-6.50;99.90
17948;DHT22;9099;47.958;11.366;2024-01-11T07:34:30;-6.40;99.90
17948;DHT22;9099;47.958;11.366;2024-01-11T07:36:57;-6.40;99.90
17948;DHT22;9099;47.958;11.366;2024-01-11T07:39:24;-6.20;99.90
17948;DHT22;9099;47.958;11.366;2024-01-11T07:41:51;-6.10;99.90
17948;DHT22;9099;47.958;11.366;2024-01-11T07:44:18;-6.10;99.90
17948;DHT22;9099;47.958;11.366;2024-01-11T07:46:45;-6.00;99.90
17948;DHT22;9099;47.958;11.366;2024-01-11T07:49:12;-5.90;99.90
17948;DHT22;9099;47.958;11.366;2024-01-11T07:51:40;-5.90;99.90
17948;DHT22;9099;47.958;11.366;2024-01-11T07:54:07;-5.90;99.90
17948;DHT22;9099;47.958;11.366;2024-01-11T07:56:34;-5.90;99.90
17948;DHT22;9099;47.958;11.366;2024-01-11T07:59:01;-5.90;99.90
17948;DHT22;9099;47.958;11.366;2024-01-11T08:01:28;-5.80;99.90
17948;DHT22;9099;47.958;11.366;2024-01-11T08:03:54;-5.70;99.90
17948;DHT22;9099;47.958;11.366;2024-01-11T08:06:21;-5.60;99.90
17948;DHT22;9099;47.958;11.366;2024-01-11T08:08:49;-5.50;99.90
17948;DHT22;9099;47.958;11.366;2024-01-11T08:11:17;-5.50;99.90
17948;DHT22;9099;47.958;11.366;2024-01-11T08:13:44;-5.40;99.90
17948;DHT22;9099;47.958;11.366;2024-01-11T08:16:15;-5.40;99.90
17948;DHT22;9099;47.958;11.366;2024-01-11T08:18:42;-5.40;99.90
17948;DHT22;9099;47.958;11.366;2024-01-11T08:21:11;-5.40;99.90
17948;DHT22;9099;47.958;11.366;2024-01-11T08:23:40;-5.40;99.90
17948;DHT22;9099;47.958;11.366;2024-01-11T08:26:11;-5.40;99.90
17948;DHT22;9099;47.958;11.366;2024-01-11T08:28:38;-5.40;99.90
17948;DHT22;9099;47.958;11.366;2024-01-11T08:31:05;-5.50;99.90
17948;DHT22;9099;47.958;11.366;2024-01-11T08:33:32;-5.50;99.90
17948;DHT22;9099;47.958;11.366;2024-01-11T08:35:59;-5.50;99.90
17948;DHT22;9099;47.958;11.366;2024-01-11T08:38:29;-5.60;99.90
17948;DHT22;9099;47.958;11.366;2024-01-11T08:40:56;-5.60;99.90
17948;DHT22;9099;47.958;11.366;2024-01-11T08:43:25;-5.50;99.90
17948;DHT22;9099;47.958;11.366;2024-01-11T08:45:52;-5.40;99.90
17948;DHT22;9099;47.958;11.366;2024-01-11T08:48:19;-5.40;99.90
17948;DHT22;9099;47.958;11.366;2024-01-11T08:50:46;-5.30;99.90
17948;DHT22;9099;47.958;11.366;2024-01-11T08:53:13;-5.30;99.90
17948;DHT22;9099;47.958;11.366;2024-01-11T08:55:41;-5.30;99.90
17948;DHT22;9099;47.958;11.366;2024-01-11T08:58:08;-5.20;99.90
17948;DHT22;9099;47.958;11.366;2024-01-11T09:00:37;-5.00;99.90
17948;DHT22;9099;47.958;11.366;2024-01-11T09:03:04;-5.00;99.90
17948;DHT22;9099;47.958;11.366;2024-01-11T09:05:31;-5.00;99.90
17948;DHT22;9099;47.958;11.366;2024-01-11T09:07:58;-5.00;99.90
17948;DHT22;9099;47.958;11.366;2024-01-11T09:10:25;-4.90;99.90
17948;DHT22;9099;47.958;11.366;2024-01-11T09:12:53;-4.80;99.90
17948;DHT22;9099;47.958;11.366;2024-01-11T09:15:20;-4.60;99.90
17948;DHT22;9099;47.958;11.366;2024-01-11T09:17:48;-4.80;99.90
17948;DHT22;9099;47.958;11.366;2024-01-11T09:20:16;-4.90;99.90
17948;DHT22;9099;47.958;11.366;2024-01-11T09:22:44;-4.90;99.90
17948;DHT22;9099;47.958;11.366;2024-01-11T09:25:11;-4.70;99.90
17948;DHT22;9099;47.958;11.366;2024-01-11T09:27:38;-4.80;99.90
17948;DHT22;9099;47.958;11.366;2024-01-11T09:30:06;-4.80;99.90
17948;DHT22;9099;47.958;11.366;2024-01-11T09:32:34;-4.70;99.90
17948;DHT22;9099;47.958;11.366;2024-01-11T09:35:03;-4.70;99.90
17948;DHT22;9099;47.958;11.366;2024-01-11T09:37:31;-4.60;99.90
17948;DHT22;9099;47.958;11.366;2024-01-11T09:39:57;-4.40;99.90
17948;DHT22;9099;47.958;11.366;2024-01-11T09:42:26;-4.50;99.90
17948;DHT22;9099;47.958;11.366;2024-01-11T09:44:53;-4.60;99.90
17948;DHT22;9099;47.958;11.366;2024-01-11T09:47:21;-4.50;99.90
17948;DHT22;9099;47.958;11.366;2024-01-11T09:49:50;-4.20;99.90
17948;DHT22;9099;47.958;11.366;2024-01-11T09:52:20;-3.80;99.90
17948;DHT22;9099;47.958;11.366;2024-01-11T09:54:49;-3.30;99.90
17948;DHT22;9099;47.958;11.366;2024-01-11T09:57:18;-2.90;99.90
17948;DHT22;9099;47.958;11.366;2024-01-11T09:59:49;-2.70;99.90
17948;DHT22;9099;47.958;11.366;2024-01-11T10:02:17;-2.70;99.90
17948;DHT22;9099;47.958;11.366;2024-01-11T10:04:44;-2.50;99.90
17948;DHT22;9099;47.958;11.366;2024-01-11T10:07:13;-2.40;99.90
17948;DHT22;9099;47.958;11.366;2024-01-11T10:09:42;-2.40;99.90
17948;DHT22;9099;47.958;11.366;2024-01-11T10:12:09;-2.30;99.90
17948;DHT22;9099;47.958;11.366;2024-01-11T10:14:35;-2.40;99.90
17948;DHT22;9099;47.958;11.366;2024-01-11T10:17:03;-2.40;99.90
17948;DHT22;9099;47.958;11.366;2024-01-11T10:19:30;-2.40;99.90
17948;DHT22;9099;47.958;11.366;2024-01-11T10:21:57;-2.40;99.90
17948;DHT22;9099;47.958;11.366;2024-01-11T10:24:25;-2.40;99.90
17948;DHT22;9099;47.958;11.366;2024-01-11T10:26:55;-2.50;99.90
17948;DHT22;9099;47.958;11.366;2024-01-11T10:29:22;-2.50;99.90
17948;DHT22;9099;47.958;11.366;2024-01-11T10:31:49;-2.40;99.90
17948;DHT22;9099;47.958;11.366;2024-01-11T10:34:17;-2.40;99.90
17948;DHT22;9099;47.958;11.366;2024-01-11T10:36:44;-2.40;99.90
17948;DHT22;9099;47.958;11.366;2024-01-11T10:39:11;-2.30;99.90
17948;DHT22;9099;47.958;11.366;2024-01-11T10:41:40;-2.30;99.90
17948;DHT22;9099;47.958;11.366;2024-01-11T10:44:15;-2.30;99.90
17948;DHT22;9099;47.958;11.366;2024-01-11T10:46:45;-2.30;99.90
17948;DHT22;9099;47.958;11.366;2024-01-11T10:49:16;-2.40;99.90
17948;DHT22;9099;47.958;11.366;2024-01-11T10:51:48;-2.40;99.90
17948;DHT22;9099;47.958;11.366;2024-01-11T10:54:17;-2.30;99.90
17948;DHT22;9099;47.958;11.366;2024-01-11T10:56:45;-2.20;99.90
17948;DHT22;9099;47.958;11.366;2024-01-11T10:59:15;-2.20;99.90
17948;DHT22;9099;47.958;11.366;2024-01-11T11:01:43;-2.20;99.90
17948;DHT22;9099;47.958;11.366;2024-01-11T11:04:11;-2.20;99.90
17948;DHT22;9099;47.958;11.366;2024-01-11T11:06:40;-2.00;99.90
17948;DHT22;9099;47.958;11.366;2024-01-11T11:09:10;-2.30;99.90
17948;DHT22;9099;47.958;11.366;2024-01-11T11:11:38;-2.30;99.90
17948;DHT22;9099;47.958;11.366;2024-01-11T11:14:06;-2.60;99.90
17948;DHT22;9099;47.958;11.366;2024-01-11T11:16:35;-2.80;99.90
17948;DHT22;9099;47.958;11.366;2024-01-11T11:19:02;-2.80;99.90
17948;DHT22;9099;47.958;11.366;2024-01-11T11:21:29;-2.60;99.90
17948;DHT22;9099;47.958;11.366;2024-01-11T11:23:56;-2.70;99.90
17948;DHT22;9099;47.958;11.366;2024-01-11T11:26:26;-2.60;99.90
17948;DHT22;9099;47.958;11.366;2024-01-11T11:28:53;-2.50;99.90
17948;DHT22;9099;47.958;11.366;2024-01-11T11:31:37;-2.60;99.90
17948;DHT22;9099;47.958;11.366;2024-01-11T11:34:04;-2.70;99.90
17948;DHT22;9099;47.958;11.366;2024-01-11T11:36:33;-2.50;99.90
17948;DHT22;9099;47.958;11.366;2024-01-11T11:39:01;-2.40;99.90
17948;DHT22;9099;47.958;11.366;2024-01-11T11:41:30;-2.20;99.90
17948;DHT22;9099;47.958;11.366;2024-01-11T11:44:01;-2.10;99.90
17948;DHT22;9099;47.958;11.366;2024-01-11T11:46:30;-2.10;99.90
17948;DHT22;9099;47.958;11.366;2024-01-11T11:48:59;-2.10;99.90
17948;DHT22;9099;47.958;11.366;2024-01-11T11:51:29;-2.00;99.90
17948;DHT22;9099;47.958;11.366;2024-01-11T11:53:58;-1.90;99.90
17948;DHT22;9099;47.958;11.366;2024-01-11T11:56:25;-1.90;99.90
17948;DHT22;9099;47.958;11.366;2024-01-11T11:58:53;-1.80;99.90
17948;DHT22;9099;47.958;11.366;2024-01-11T12:01:20;-1.60;99.90
17948;DHT22;9099;47.958;11.366;2024-01-11T12:03:48;-1.60;99.90
17948;DHT22;9099;47.958;11.366;2024-01-11T12:06:21;-1.60;99.90
17948;DHT22;9099;47.958;11.366;2024-01-11T12:08:52;-1.60;99.90
17948;DHT22;9099;47.958;11.366;2024-01-11T12:11:21;-1.50;99.90
17948;DHT22;9099;47.958;11.366;2024-01-11T12:13:49;-1.80;99.90
17948;DHT22;9099;47.958;11.366;2024-01-11T12:16:16;-1.70;99.90
17948;DHT22;9099;47.958;11.366;2024-01-11T12:18:43;-1.70;99.90
17948;DHT22;9099;47.958;11.366;2024-01-11T12:21:10;-1.60;99.90
17948;DHT22;9099;47.958;11.366;2024-01-11T12:23:39;-1.40;99.90
17948;DHT22;9099;47.958;11.366;2024-01-11T12:26:07;-1.30;99.90
17948;DHT22;9099;47.958;11.366;2024-01-11T12:28:38;-1.20;99.90
17948;DHT22;9099;47.958;11.366;2024-01-11T12:31:05;-1.10;99.90
17948;DHT22;9099;47.958;11.366;2024-01-11T12:33:33;-1.20;99.90
17948;DHT22;9099;47.958;11.366;2024-01-11T12:36:06;-1.50;99.90
17948;DHT22;9099;47.958;11.366;2024-01-11T12:38:38;-1.60;99.90
17948;DHT22;9099;47.958;11.366;2024-01-11T12:41:13;-1.70;99.90
17948;DHT22;9099;47.958;11.366;2024-01-11T12:43:41;-1.60;99.90
17948;DHT22;9099;47.958;11.366;2024-01-11T12:46:08;-1.40;99.90
17948;DHT22;9099;47.958;11.366;2024-01-11T12:48:35;-1.20;99.90
17948;DHT22;9099;47.958;11.366;2024-01-11T12:51:01;-1.00;99.90
17948;DHT22;9099;47.958;11.366;2024-01-11T12:53:29;-1.10;99.90
17948;DHT22;9099;47.958;11.366;2024-01-11T12:56:05;-1.10;99.90
17948;DHT22;9099;47.958;11.366;2024-01-11T12:58:34;-1.10;99.90
17948;DHT22;9099;47.958;11.366;2024-01-11T13:01:01;-1.00;99.90
17948;DHT22;9099;47.958;11.366;2024-01-11T13:03:30;-1.10;99.90
17948;DHT22;9099;47.958;11.366;2024-01-11T13:05:59;-1.20;99.90
17948;DHT22;9099;47.958;11.366;2024-01-11T13:08:26;-1.20;99.90
17948;DHT22;9099;47.958;11.366;2024-01-11T13:10:54;-1.20;99.90
17948;DHT22;9099;47.958;11.366;2024-01-11T13:13:22;-1.20;99.90
17948;DHT22;9099;47.958;11.366;2024-01-11T13:15:50;-1.20;99.90
17948;DHT22;9099;47.958;11.366;2024-01-11T13:18:17;-1.20;99.90
17948;DHT22;9099;47.958;11.366;2024-01-11T13:20:45;-1.40;99.90
17948;DHT22;9099;47.958;11.366;2024-01-11T13:23:14;-1.40;99.90
17948;DHT22;9099;47.958;11.366;2024-01-11T13:25:41;-1.50;99.90
17948;DHT22;9099;47.958;11.366;2024-01-11T13:28:08;-1.40;99.90
17948;DHT22;9099;47.958;11.366;2024-01-11T13:30:37;-1.40;99.90
17948;DHT22;9099;47.958;11.366;2024-01-11T13:33:05;-1.30;99.90
17948;DHT22;9099;47.958;11.366;2024-01-11T13:35:33;-1.30;99.90
17948;DHT22;9099;47.958;11.366;2024-01-11T13:38:00;-1.40;99.90
17948;DHT22;9099;47.958;11.366;2024-01-11T13:40:27;-1.40;99.90
17948;DHT22;9099;47.958;11.366;2024-01-11T13:42:54;-1.50;99.90
17948;DHT22;9099;47.958;11.366;2024-01-11T13:45:21;-1.50;99.90
17948;DHT22;9099;47.958;11.366;2024-01-11T13:47:50;-1.60;99.90
17948;DHT22;9099;47.958;11.366;2024-01-11T13:50:17;-1.70;99.90
17948;DHT22;9099;47.958;11.366;2024-01-11T13:52:44;-1.80;99.90
17948;DHT22;9099;47.958;11.366;2024-01-11T13:55:11;-1.90;99.90
17948;DHT22;9099;47.958;11.366;2024-01-11T13:57:39;-2.00;99.90
17948;DHT22;9099;47.958;11.366;2024-01-11T14:00:09;-2.10;99.90
17948;DHT22;9099;47.958;11.366;2024-01-11T14:02:36;-2.10;99.90
17948;DHT22;9099;47.958;11.366;2024-01-11T14:05:07;-2.10;99.90
17948;DHT22;9099;47.958;11.366;2024-01-11T14:07:37;-2.20;99.90
17948;DHT22;9099;47.958;11.366;2024-01-11T14:10:04;-2.30;99.90
17948;DHT22;9099;47.958;11.366;2024-01-11T14:12:31;-2.30;99.90
17948;DHT22;9099;47.958;11.366;2024-01-11T14:14:58;-2.20;99.90
17948;DHT22;9099;47.958;11.366;2024-01-11T14:17:25;-2.20;99.90
17948;DHT22;9099;47.958;11.366;2024-01-11T14:19:52;-2.20;99.90
17948;DHT22;9099;47.958;11.366;2024-01-11T14:22:21;-2.30;99.90
17948;DHT22;9099;47.958;11.366;2024-01-11T14:24:47;-2.20;99.90
17948;DHT22;9099;47.958;11.366;2024-01-11T14:27:14;-2.00;99.90
17948;DHT22;9099;47.958;11.366;2024-01-11T14:29:42;-1.90;99.90
17948;DHT22;9099;47.958;11.366;2024-01-11T14:32:09;-1.80;99.90
17948;DHT22;9099;47.958;11.366;2024-01-11T14:34:36;-1.80;99.90
17948;DHT22;9099;47.958;11.366;2024-01-11T14:37:04;-1.80;99.90
17948;DHT22;9099;47.958;11.366;2024-01-11T14:39:32;-1.80;99.90
17948;DHT22;9099;47.958;11.366;2024-01-11T14:41:59;-1.80;99.90
17948;DHT22;9099;47.958;11.366;2024-01-11T14:44:26;-1.80;99.90
17948;DHT22;9099;47.958;11.366;2024-01-11T14:46:53;-2.00;99.90
17948;DHT22;9099;47.958;11.366;2024-01-11T14:49:19;-2.30;99.90
17948;DHT22;9099;47.958;11.366;2024-01-11T14:51:46;-2.40;99.90
17948;DHT22;9099;47.958;11.366;2024-01-11T14:54:13;-2.50;99.90
17948;DHT22;9099;47.958;11.366;2024-01-11T14:56:41;-2.40;99.90
17948;DHT22;9099;47.958;11.366;2024-01-11T14:59:09;-2.20;99.90
17948;DHT22;9099;47.958;11.366;2024-01-11T15:01:36;-2.00;99.90
17948;DHT22;9099;47.958;11.366;2024-01-11T15:04:03;-1.80;99.90
17948;DHT22;9099;47.958;11.366;2024-01-11T15:06:30;-1.70;99.90
17948;DHT22;9099;47.958;11.366;2024-01-11T15:08:57;-1.60;99.90
17948;DHT22;9099;47.958;11.366;2024-01-11T15:11:24;-1.80;99.90
17948;DHT22;9099;47.958;11.366;2024-01-11T15:13:52;-1.80;99.90
17948;DHT22;9099;47.958;11.366;2024-01-11T15:16:19;-1.80;99.90
17948;DHT22;9099;47.958;11.366;2024-01-11T15:18:46;-2.00;99.90
17948;DHT22;9099;47.958;11.366;2024-01-11T15:21:13;-2.00;99.90
17948;DHT22;9099;47.958;11.366;2024-01-11T15:23:39;-2.20;99.90
17948;DHT22;9099;47.958;11.366;2024-01-11T15:26:06;-2.30;99.90
17948;DHT22;9099;47.958;11.366;2024-01-11T15:28:33;-2.20;99.90
17948;DHT22;9099;47.958;11.366;2024-01-11T15:31:02;-2.00;99.90